sensor_id;sensor_type;location;lat;lon;timestamp;P1;durP1;ratioP1;P2;durP2;ratioP2
15443;SDS011;7822;48.146;11.576;2023-03-26T00:01:52;1.00;;;0.50;;
15443;SDS011;7822;48.146;11.576;2023-03-26T00:04:19;2.33;;;0.80;;
15443;SDS011;7822;48.146;11.576;2023-03-26T00:06:47;2.33;;;0.63;;
15443;SDS011;7822;48.146;11.576;2023-03-26T00:09:17;2.40;;;0.93;;
15443;SDS011;7822;48.146;11.576;2023-03-26T00:11:45;1.77;;;1.00;;
15443;SDS011;7822;48.146;11.576;2023-03-26T00:14:12;1.70;;;0.90;;
15443;SDS011;7822;48.146;11.576;2023-03-26T00:16:43;1.90;;;0.90;;
15443;SDS011;7822;48.146;11.576;2023-03-26T00:19:13;1.80;;;0.63;;
15443;SDS011;7822;48.146;11.576;2023-03-26T00:21:40;2.00;;;0.50;;
15443;SDS011;7822;48.146;11.576;2023-03-26T00:24:09;1.50;;;0.87;;
15443;SDS011;7822;48.146;11.576;2023-03-26T00:26:42;1.60;;;0.80;;
15443;SDS011;7822;48.146;11.576;2023-03-26T00:29:13;1.33;;;0.60;;
15443;SDS011;7822;48.146;11.576;2023-03-26T00:31:42;1.47;;;0.70;;
15443;SDS011;7822;48.146;11.576;2023-03-26T00:34:11;1.77;;;0.83;;
15443;SDS011;7822;48.146;11.576;2023-03-26T00:36:40;1.10;;;0.97;;
15443;SDS011;7822;48.146;11.576;2023-03-26T00:39:09;1.60;;;0.57;;
15443;SDS011;7822;48.146;11.576;2023-03-26T00:41:36;0.53;;;0.40;;
15443;SDS011;7822;48.146;11.576;2023-03-26T00:44:09;0.73;;;0.50;;
15443;SDS011;7822;48.146;11.576;2023-03-26T00:46:38;2.47;;;0.77;;
15443;SDS011;7822;48.146;11.576;2023-03-26T00:49:06;0.77;;;0.50;;
15443;SDS011;7822;48.146;11.576;2023-03-26T00:51:36;2.40;;;0.80;;
15443;SDS011;7822;48.146;11.576;2023-03-26T00:54:05;1.73;;;0.50;;
15443;SDS011;7822;48.146;11.576;2023-03-26T00:56:33;2.10;;;0.90;;
15443;SDS011;7822;48.146;11.576;2023-03-26T00:59:01;1.37;;;0.80;;
15443;SDS011;7822;48.146;11.576;2023-03-26T01:01:30;1.03;;;0.50;;
15443;SDS011;7822;48.146;11.576;2023-03-26T01:04:16;1.23;;;0.80;;
15443;SDS011;7822;48.146;11.576;2023-03-26T01:06:50;1.20;;;0.47;;
15443;SDS011;7822;48.146;11.576;2023-03-26T01:09:19;2.43;;;0.60;;
15443;SDS011;7822;48.146;11.576;2023-03-26T01:11:49;1.47;;;0.50;;
15443;SDS011;7822;48.146;11.576;2023-03-26T01:14:17;1.70;;;0.63;;
15443;SDS011;7822;48.146;11.576;2023-03-26T01:16:49;0.67;;;0.60;;
15443;SDS011;7822;48.146;11.576;2023-03-26T01:19:20;1.13;;;0.57;;
15443;SDS011;7822;48.146;11.576;2023-03-26T01:21:54;0.50;;;0.40;;
15443;SDS011;7822;48.146;11.576;2023-03-26T01:24:25;1.23;;;0.77;;
15443;SDS011;7822;48.146;11.576;2023-03-26T01:26:59;0.50;;;0.50;;
15443;SDS011;7822;48.146;11.576;2023-03-26T01:29:37;1.63;;;0.50;;
15443;SDS011;7822;48.146;11.576;2023-03-26T01:32:17;1.13;;;0.70;;
15443;SDS011;7822;48.146;11.576;2023-03-26T01:34:56;0.53;;;0.50;;
15443;SDS011;7822;48.146;11.576;2023-03-26T01:37:36;0.97;;;0.60;;
15443;SDS011;7822;48.146;11.576;2023-03-26T01:40:14;2.27;;;0.80;;
15443;SDS011;7822;48.146;11.576;2023-03-26T01:42:51;2.10;;;0.60;;
15443;SDS011;7822;48.146;11.576;2023-03-26T01:45:23;1.07;;;0.50;;
15443;SDS011;7822;48.146;11.576;2023-03-26T01:47:55;0.87;;;0.50;;
15443;SDS011;7822;48.146;11.576;2023-03-26T01:50:23;1.17;;;0.60;;
15443;SDS011;7822;48.146;11.576;2023-03-26T01:52:51;0.73;;;0.50;;
15443;SDS011;7822;48.146;11.576;2023-03-26T01:55:20;1.20;;;0.70;;
15443;SDS011;7822;48.146;11.576;2023-03-26T01:57:55;0.50;;;0.40;;
15443;SDS011;7822;48.146;11.576;2023-03-26T02:00:30;1.67;;;0.70;;
15443;SDS011;7822;48.146;11.576;2023-03-26T02:03:03;1.43;;;0.70;;
15443;SDS011;7822;48.146;11.576;2023-03-26T02:05:46;0.97;;;0.40;;
15443;SDS011;7822;48.146;11.576;2023-03-26T02:08:20;0.60;;;0.60;;
15443;SDS011;7822;48.146;11.576;2023-03-26T02:10:53;0.70;;;0.40;;
15443;SDS011;7822;48.146;11.576;2023-03-26T02:13:23;0.53;;;0.43;;
15443;SDS011;7822;48.146;11.576;2023-03-26T02:15:56;0.90;;;0.50;;
15443;SDS011;7822;48.146;11.576;2023-03-26T02:18:26;0.50;;;0.50;;
15443;SDS011;7822;48.146;11.576;2023-03-26T02:21:02;0.40;;;0.40;;
15443;SDS011;7822;48.146;11.576;2023-03-26T02:23:31;0.53;;;0.40;;
15443;SDS011;7822;48.146;11.576;2023-03-26T02:26:03;2.37;;;0.40;;
15443;SDS011;7822;48.146;11.576;2023-03-26T02:28:32;0.60;;;0.53;;
15443;SDS011;7822;48.146;11.576;2023-03-26T02:31:00;0.67;;;0.57;;
15443;SDS011;7822;48.146;11.576;2023-03-26T02:33:28;1.77;;;0.70;;
15443;SDS011;7822;48.146;11.576;2023-03-26T02:35:58;1.03;;;0.50;;
15443;SDS011;7822;48.146;11.576;2023-03-26T02:38:27;1.23;;;0.90;;
15443;SDS011;7822;48.146;11.576;2023-03-26T02:40:58;0.90;;;0.40;;
15443;SDS011;7822;48.146;11.576;2023-03-26T02:43:28;1.00;;;0.50;;
15443;SDS011;7822;48.146;11.576;2023-03-26T02:45:56;1.33;;;0.40;;
15443;SDS011;7822;48.146;11.576;2023-03-26T02:48:24;0.50;;;0.50;;
15443;SDS011;7822;48.146;11.576;2023-03-26T02:50:52;0.73;;;0.40;;
15443;SDS011;7822;48.146;11.576;2023-03-26T02:53:20;0.70;;;0.47;;
15443;SDS011;7822;48.146;11.576;2023-03-26T02:55:49;0.90;;;0.40;;
15443;SDS011;7822;48.146;11.576;2023-03-26T02:58:17;0.87;;;0.40;;
15443;SDS011;7822;48.146;11.576;2023-03-26T03:00:46;3.07;;;0.50;;
15443;SDS011;7822;48.146;11.576;2023-03-26T03:03:15;1.10;;;0.57;;
15443;SDS011;7822;48.146;11.576;2023-03-26T03:05:43;1.00;;;0.57;;
15443;SDS011;7822;48.146;11.576;2023-03-26T03:08:11;0.60;;;0.40;;
15443;SDS011;7822;48.146;11.576;2023-03-26T03:10:39;0.33;;;0.33;;
15443;SDS011;7822;48.146;11.576;2023-03-26T03:13:07;1.23;;;0.77;;
15443;SDS011;7822;48.146;11.576;2023-03-26T03:15:35;1.17;;;0.50;;
15443;SDS011;7822;48.146;11.576;2023-03-26T03:18:04;1.03;;;0.53;;
15443;SDS011;7822;48.146;11.576;2023-03-26T03:20:32;0.80;;;0.40;;
15443;SDS011;7822;48.146;11.576;2023-03-26T03:23:00;0.87;;;0.47;;
15443;SDS011;7822;48.146;11.576;2023-03-26T03:25:28;0.40;;;0.40;;
15443;SDS011;7822;48.146;11.576;2023-03-26T03:27:56;1.70;;;0.40;;
15443;SDS011;7822;48.146;11.576;2023-03-26T03:30:24;1.00;;;0.60;;
15443;SDS011;7822;48.146;11.576;2023-03-26T03:32:51;0.50;;;0.40;;
15443;SDS011;7822;48.146;11.576;2023-03-26T03:35:20;0.53;;;0.40;;
15443;SDS011;7822;48.146;11.576;2023-03-26T03:37:48;1.17;;;0.57;;
15443;SDS011;7822;48.146;11.576;2023-03-26T03:40:16;0.40;;;0.40;;
15443;SDS011;7822;48.146;11.576;2023-03-26T03:42:44;0.97;;;0.40;;
15443;SDS011;7822;48.146;11.576;2023-03-26T03:45:13;0.53;;;0.40;;
15443;SDS011;7822;48.146;11.576;2023-03-26T03:47:40;1.33;;;0.80;;
15443;SDS011;7822;48.146;11.576;2023-03-26T03:50:08;0.50;;;0.50;;
15443;SDS011;7822;48.146;11.576;2023-03-26T03:52:38;1.27;;;0.40;;
15443;SDS011;7822;48.146;11.576;2023-03-26T03:55:06;0.70;;;0.50;;
15443;SDS011;7822;48.146;11.576;2023-03-26T03:57:35;0.30;;;0.30;;
15443;SDS011;7822;48.146;11.576;2023-03-26T04:00:03;0.50;;;0.50;;
15443;SDS011;7822;48.146;11.576;2023-03-26T04:02:35;0.90;;;0.50;;
15443;SDS011;7822;48.146;11.576;2023-03-26T04:05:03;0.80;;;0.50;;
15443;SDS011;7822;48.146;11.576;2023-03-26T04:07:32;0.30;;;0.30;;
15443;SDS011;7822;48.146;11.576;2023-03-26T04:10:01;0.60;;;0.40;;
15443;SDS011;7822;48.146;11.576;2023-03-26T04:12:31;0.43;;;0.43;;
15443;SDS011;7822;48.146;11.576;2023-03-26T04:14:58;0.73;;;0.40;;
15443;SDS011;7822;48.146;11.576;2023-03-26T04:17:26;0.30;;;0.30;;
15443;SDS011;7822;48.146;11.576;2023-03-26T04:19:55;0.53;;;0.50;;
15443;SDS011;7822;48.146;11.576;2023-03-26T04:22:23;0.67;;;0.40;;
15443;SDS011;7822;48.146;11.576;2023-03-26T04:25:03;0.40;;;0.40;;
15443;SDS011;7822;48.146;11.576;2023-03-26T04:27:31;0.40;;;0.40;;
15443;SDS011;7822;48.146;11.576;2023-03-26T04:30:02;1.47;;;0.50;;
15443;SDS011;7822;48.146;11.576;2023-03-26T04:32:31;0.60;;;0.50;;
15443;SDS011;7822;48.146;11.576;2023-03-26T04:35:00;0.50;;;0.30;;
15443;SDS011;7822;48.146;11.576;2023-03-26T04:37:30;1.30;;;0.50;;
15443;SDS011;7822;48.146;11.576;2023-03-26T04:39:59;0.40;;;0.40;;
15443;SDS011;7822;48.146;11.576;2023-03-26T04:42:33;0.90;;;0.40;;
15443;SDS011;7822;48.146;11.576;2023-03-26T04:45:03;0.30;;;0.30;;
15443;SDS011;7822;48.146;11.576;2023-03-26T04:47:31;0.50;;;0.50;;
15443;SDS011;7822;48.146;11.576;2023-03-26T04:50:02;0.73;;;0.40;;
15443;SDS011;7822;48.146;11.576;2023-03-26T04:52:30;0.50;;;0.43;;
15443;SDS011;7822;48.146;11.576;2023-03-26T04:54:58;0.40;;;0.40;;
15443;SDS011;7822;48.146;11.576;2023-03-26T04:57:26;0.93;;;0.40;;
15443;SDS011;7822;48.146;11.576;2023-03-26T04:59:59;0.50;;;0.40;;
15443;SDS011;7822;48.146;11.576;2023-03-26T05:02:28;0.93;;;0.50;;
15443;SDS011;7822;48.146;11.576;2023-03-26T05:04:57;0.90;;;0.43;;
15443;SDS011;7822;48.146;11.576;2023-03-26T05:07:27;0.80;;;0.50;;
15443;SDS011;7822;48.146;11.576;2023-03-26T05:09:55;0.53;;;0.30;;
15443;SDS011;7822;48.146;11.576;2023-03-26T05:12:23;0.70;;;0.40;;
15443;SDS011;7822;48.146;11.576;2023-03-26T05:14:51;0.77;;;0.60;;
15443;SDS011;7822;48.146;11.576;2023-03-26T05:17:20;0.40;;;0.40;;
15443;SDS011;7822;48.146;11.576;2023-03-26T05:19:49;0.67;;;0.40;;
15443;SDS011;7822;48.146;11.576;2023-03-26T05:22:17;0.47;;;0.33;;
15443;SDS011;7822;48.146;11.576;2023-03-26T05:24:45;0.60;;;0.30;;
15443;SDS011;7822;48.146;11.576;2023-03-26T05:27:13;0.60;;;0.40;;
15443;SDS011;7822;48.146;11.576;2023-03-26T05:29:42;0.60;;;0.33;;
15443;SDS011;7822;48.146;11.576;2023-03-26T05:32:09;0.30;;;0.30;;
15443;SDS011;7822;48.146;11.576;2023-03-26T05:34:38;0.67;;;0.40;;
15443;SDS011;7822;48.146;11.576;2023-03-26T05:37:07;1.03;;;0.60;;
15443;SDS011;7822;48.146;11.576;2023-03-26T05:39:35;0.50;;;0.33;;
15443;SDS011;7822;48.146;11.576;2023-03-26T05:42:03;1.40;;;0.43;;
15443;SDS011;7822;48.146;11.576;2023-03-26T05:44:32;1.00;;;0.40;;
15443;SDS011;7822;48.146;11.576;2023-03-26T05:47:00;0.37;;;0.30;;
15443;SDS011;7822;48.146;11.576;2023-03-26T05:49:29;0.40;;;0.30;;
15443;SDS011;7822;48.146;11.576;2023-03-26T05:51:57;0.87;;;0.60;;
15443;SDS011;7822;48.146;11.576;2023-03-26T05:54:25;0.40;;;0.40;;
15443;SDS011;7822;48.146;11.576;2023-03-26T05:56:53;0.53;;;0.50;;
15443;SDS011;7822;48.146;11.576;2023-03-26T05:59:22;0.30;;;0.30;;
15443;SDS011;7822;48.146;11.576;2023-03-26T06:01:50;0.43;;;0.37;;
15443;SDS011;7822;48.146;11.576;2023-03-26T06:04:20;1.07;;;0.50;;
15443;SDS011;7822;48.146;11.576;2023-03-26T06:06:47;0.40;;;0.30;;
15443;SDS011;7822;48.146;11.576;2023-03-26T06:09:19;0.50;;;0.40;;
15443;SDS011;7822;48.146;11.576;2023-03-26T06:11:46;0.40;;;0.40;;
15443;SDS011;7822;48.146;11.576;2023-03-26T06:14:14;0.43;;;0.43;;
15443;SDS011;7822;48.146;11.576;2023-03-26T06:16:42;0.60;;;0.40;;
15443;SDS011;7822;48.146;11.576;2023-03-26T06:19:10;0.57;;;0.50;;
15443;SDS011;7822;48.146;11.576;2023-03-26T06:21:37;0.90;;;0.50;;
15443;SDS011;7822;48.146;11.576;2023-03-26T06:24:05;0.30;;;0.30;;
15443;SDS011;7822;48.146;11.576;2023-03-26T06:26:34;1.33;;;0.47;;
15443;SDS011;7822;48.146;11.576;2023-03-26T06:29:02;0.43;;;0.43;;
15443;SDS011;7822;48.146;11.576;2023-03-26T06:31:30;0.90;;;0.50;;
15443;SDS011;7822;48.146;11.576;2023-03-26T06:33:57;0.50;;;0.43;;
15443;SDS011;7822;48.146;11.576;2023-03-26T06:36:25;0.63;;;0.63;;
15443;SDS011;7822;48.146;11.576;2023-03-26T06:38:53;0.70;;;0.50;;
15443;SDS011;7822;48.146;11.576;2023-03-26T06:41:20;0.30;;;0.30;;
15443;SDS011;7822;48.146;11.576;2023-03-26T06:43:49;0.70;;;0.40;;
15443;SDS011;7822;48.146;11.576;2023-03-26T06:46:18;0.80;;;0.60;;
15443;SDS011;7822;48.146;11.576;2023-03-26T06:48:46;0.67;;;0.43;;
15443;SDS011;7822;48.146;11.576;2023-03-26T06:51:14;0.93;;;0.60;;
15443;SDS011;7822;48.146;11.576;2023-03-26T06:53:41;0.70;;;0.70;;
15443;SDS011;7822;48.146;11.576;2023-03-26T06:56:09;2.47;;;1.30;;
15443;SDS011;7822;48.146;11.576;2023-03-26T06:58:37;1.20;;;0.70;;
15443;SDS011;7822;48.146;11.576;2023-03-26T07:01:06;1.07;;;0.70;;
15443;SDS011;7822;48.146;11.576;2023-03-26T07:03:34;3.80;;;1.10;;
15443;SDS011;7822;48.146;11.576;2023-03-26T07:06:02;1.53;;;0.80;;
15443;SDS011;7822;48.146;11.576;2023-03-26T07:08:30;1.70;;;1.07;;
15443;SDS011;7822;48.146;11.576;2023-03-26T07:10:58;1.30;;;0.90;;
15443;SDS011;7822;48.146;11.576;2023-03-26T07:13:26;4.70;;;1.00;;
15443;SDS011;7822;48.146;11.576;2023-03-26T07:15:53;1.70;;;0.90;;
15443;SDS011;7822;48.146;11.576;2023-03-26T07:18:22;2.93;;;1.17;;
15443;SDS011;7822;48.146;11.576;2023-03-26T07:20:50;2.70;;;0.90;;
15443;SDS011;7822;48.146;11.576;2023-03-26T07:23:19;3.00;;;0.90;;
15443;SDS011;7822;48.146;11.576;2023-03-26T07:25:47;1.07;;;0.80;;
15443;SDS011;7822;48.146;11.576;2023-03-26T07:28:18;2.17;;;1.10;;
15443;SDS011;7822;48.146;11.576;2023-03-26T07:30:54;1.70;;;0.80;;
15443;SDS011;7822;48.146;11.576;2023-03-26T07:33:32;1.40;;;1.03;;
15443;SDS011;7822;48.146;11.576;2023-03-26T07:36:07;3.80;;;1.10;;
15443;SDS011;7822;48.146;11.576;2023-03-26T07:38:47;2.13;;;1.00;;
15443;SDS011;7822;48.146;11.576;2023-03-26T07:41:27;2.83;;;1.00;;
15443;SDS011;7822;48.146;11.576;2023-03-26T07:44:17;2.33;;;1.20;;
15443;SDS011;7822;48.146;11.576;2023-03-26T07:46:55;3.50;;;1.47;;
15443;SDS011;7822;48.146;11.576;2023-03-26T07:49:28;2.60;;;1.30;;
15443;SDS011;7822;48.146;11.576;2023-03-26T07:51:56;2.23;;;1.57;;
15443;SDS011;7822;48.146;11.576;2023-03-26T07:54:24;3.60;;;1.40;;
15443;SDS011;7822;48.146;11.576;2023-03-26T07:56:53;3.43;;;2.00;;
15443;SDS011;7822;48.146;11.576;2023-03-26T07:59:27;3.53;;;1.80;;
15443;SDS011;7822;48.146;11.576;2023-03-26T08:02:04;3.60;;;1.27;;
15443;SDS011;7822;48.146;11.576;2023-03-26T08:04:51;2.33;;;1.60;;
15443;SDS011;7822;48.146;11.576;2023-03-26T08:07:29;3.40;;;1.70;;
15443;SDS011;7822;48.146;11.576;2023-03-26T08:10:08;3.10;;;1.30;;
15443;SDS011;7822;48.146;11.576;2023-03-26T08:12:45;2.37;;;1.30;;
15443;SDS011;7822;48.146;11.576;2023-03-26T08:15:20;2.53;;;1.70;;
15443;SDS011;7822;48.146;11.576;2023-03-26T08:17:56;2.93;;;1.40;;
15443;SDS011;7822;48.146;11.576;2023-03-26T08:20:33;2.70;;;1.10;;
15443;SDS011;7822;48.146;11.576;2023-03-26T08:23:07;3.73;;;1.30;;
15443;SDS011;7822;48.146;11.576;2023-03-26T08:25:48;2.13;;;1.20;;
15443;SDS011;7822;48.146;11.576;2023-03-26T08:28:27;3.07;;;1.87;;
15443;SDS011;7822;48.146;11.576;2023-03-26T08:31:04;3.00;;;1.73;;
15443;SDS011;7822;48.146;11.576;2023-03-26T08:33:34;2.60;;;1.17;;
15443;SDS011;7822;48.146;11.576;2023-03-26T08:36:05;3.17;;;1.50;;
15443;SDS011;7822;48.146;11.576;2023-03-26T08:38:34;3.00;;;1.23;;
15443;SDS011;7822;48.146;11.576;2023-03-26T08:44:11;3.10;;;1.03;;
15443;SDS011;7822;48.146;11.576;2023-03-26T08:47:10;2.63;;;1.17;;
15443;SDS011;7822;48.146;11.576;2023-03-26T08:50:14;3.07;;;1.30;;
15443;SDS011;7822;48.146;11.576;2023-03-26T08:56:06;2.30;;;0.90;;
15443;SDS011;7822;48.146;11.576;2023-03-26T08:59:00;2.87;;;1.00;;
15443;SDS011;7822;48.146;11.576;2023-03-26T09:01:50;3.03;;;1.03;;
15443;SDS011;7822;48.146;11.576;2023-03-26T09:04:35;1.47;;;1.17;;
15443;SDS011;7822;48.146;11.576;2023-03-26T09:07:23;1.33;;;0.70;;
15443;SDS011;7822;48.146;11.576;2023-03-26T09:10:17;3.73;;;1.30;;
15443;SDS011;7822;48.146;11.576;2023-03-26T09:13:13;2.83;;;1.20;;
15443;SDS011;7822;48.146;11.576;2023-03-26T09:19:39;3.60;;;1.20;;
15443;SDS011;7822;48.146;11.576;2023-03-26T09:25:18;3.27;;;1.20;;
15443;SDS011;7822;48.146;11.576;2023-03-26T09:28:18;2.40;;;1.10;;
15443;SDS011;7822;48.146;11.576;2023-03-26T09:31:05;1.73;;;1.10;;
15443;SDS011;7822;48.146;11.576;2023-03-26T09:33:55;2.07;;;1.30;;
15443;SDS011;7822;48.146;11.576;2023-03-26T09:36:30;3.87;;;1.30;;
15443;SDS011;7822;48.146;11.576;2023-03-26T09:39:14;1.87;;;1.27;;
15443;SDS011;7822;48.146;11.576;2023-03-26T09:41:51;3.03;;;1.30;;
15443;SDS011;7822;48.146;11.576;2023-03-26T09:44:46;3.87;;;1.30;;
15443;SDS011;7822;48.146;11.576;2023-03-26T09:50:34;2.70;;;1.20;;
15443;SDS011;7822;48.146;11.576;2023-03-26T09:53:17;3.57;;;1.33;;
15443;SDS011;7822;48.146;11.576;2023-03-26T09:55:57;2.53;;;1.40;;
15443;SDS011;7822;48.146;11.576;2023-03-26T09:58:40;2.03;;;1.20;;
15443;SDS011;7822;48.146;11.576;2023-03-26T10:01:30;4.17;;;1.40;;
15443;SDS011;7822;48.146;11.576;2023-03-26T10:07:06;2.97;;;1.50;;
15443;SDS011;7822;48.146;11.576;2023-03-26T10:09:51;2.80;;;1.43;;
15443;SDS011;7822;48.146;11.576;2023-03-26T10:12:27;2.83;;;1.13;;
15443;SDS011;7822;48.146;11.576;2023-03-26T10:15:03;2.77;;;1.07;;
15443;SDS011;7822;48.146;11.576;2023-03-26T10:17:44;1.97;;;1.10;;
15443;SDS011;7822;48.146;11.576;2023-03-26T10:20:31;1.70;;;1.00;;
15443;SDS011;7822;48.146;11.576;2023-03-26T10:23:12;3.03;;;0.90;;
15443;SDS011;7822;48.146;11.576;2023-03-26T10:25:57;2.83;;;1.23;;
15443;SDS011;7822;48.146;11.576;2023-03-26T10:28:41;2.03;;;1.10;;
15443;SDS011;7822;48.146;11.576;2023-03-26T10:31:25;2.80;;;1.13;;
15443;SDS011;7822;48.146;11.576;2023-03-26T10:34:06;3.77;;;1.30;;
15443;SDS011;7822;48.146;11.576;2023-03-26T10:36:56;3.77;;;1.47;;
15443;SDS011;7822;48.146;11.576;2023-03-26T10:39:36;3.17;;;1.33;;
15443;SDS011;7822;48.146;11.576;2023-03-26T10:42:22;3.57;;;1.20;;
15443;SDS011;7822;48.146;11.576;2023-03-26T10:45:08;2.67;;;1.30;;
15443;SDS011;7822;48.146;11.576;2023-03-26T10:48:09;3.87;;;1.40;;
15443;SDS011;7822;48.146;11.576;2023-03-26T10:50:48;2.23;;;1.07;;
15443;SDS011;7822;48.146;11.576;2023-03-26T10:53:24;3.23;;;1.60;;
15443;SDS011;7822;48.146;11.576;2023-03-26T10:55:59;3.87;;;1.07;;
15443;SDS011;7822;48.146;11.576;2023-03-26T10:58:28;2.67;;;1.13;;
15443;SDS011;7822;48.146;11.576;2023-03-26T11:01:16;2.33;;;1.37;;
15443;SDS011;7822;48.146;11.576;2023-03-26T11:03:51;1.73;;;1.10;;
15443;SDS011;7822;48.146;11.576;2023-03-26T11:06:25;2.30;;;0.90;;
15443;SDS011;7822;48.146;11.576;2023-03-26T11:09:01;7.17;;;1.30;;
15443;SDS011;7822;48.146;11.576;2023-03-26T11:11:38;2.07;;;0.90;;
15443;SDS011;7822;48.146;11.576;2023-03-26T11:14:13;4.23;;;1.40;;
15443;SDS011;7822;48.146;11.576;2023-03-26T11:17:00;3.80;;;1.00;;
15443;SDS011;7822;48.146;11.576;2023-03-26T11:19:59;2.50;;;1.27;;
15443;SDS011;7822;48.146;11.576;2023-03-26T11:22:33;2.93;;;1.03;;
15443;SDS011;7822;48.146;11.576;2023-03-26T11:25:18;3.90;;;1.03;;
15443;SDS011;7822;48.146;11.576;2023-03-26T11:28:06;4.10;;;1.23;;
15443;SDS011;7822;48.146;11.576;2023-03-26T11:30:44;3.47;;;1.10;;
15443;SDS011;7822;48.146;11.576;2023-03-26T11:33:21;1.50;;;0.83;;
15443;SDS011;7822;48.146;11.576;2023-03-26T11:36:00;2.97;;;1.00;;
15443;SDS011;7822;48.146;11.576;2023-03-26T11:38:33;1.23;;;1.03;;
15443;SDS011;7822;48.146;11.576;2023-03-26T11:41:09;3.40;;;1.27;;
15443;SDS011;7822;48.146;11.576;2023-03-26T11:43:38;2.10;;;0.60;;
15443;SDS011;7822;48.146;11.576;2023-03-26T11:46:07;2.93;;;1.20;;
15443;SDS011;7822;48.146;11.576;2023-03-26T11:48:39;1.60;;;0.90;;
15443;SDS011;7822;48.146;11.576;2023-03-26T11:51:11;2.77;;;1.40;;
15443;SDS011;7822;48.146;11.576;2023-03-26T11:53:44;1.43;;;1.20;;
15443;SDS011;7822;48.146;11.576;2023-03-26T11:56:12;1.50;;;0.87;;
15443;SDS011;7822;48.146;11.576;2023-03-26T11:58:54;2.30;;;0.80;;
15443;SDS011;7822;48.146;11.576;2023-03-26T12:01:26;3.03;;;1.30;;
15443;SDS011;7822;48.146;11.576;2023-03-26T12:03:56;2.40;;;1.10;;
15443;SDS011;7822;48.146;11.576;2023-03-26T12:06:30;2.80;;;1.47;;
15443;SDS011;7822;48.146;11.576;2023-03-26T12:08:59;3.60;;;0.90;;
15443;SDS011;7822;48.146;11.576;2023-03-26T12:11:27;2.00;;;1.10;;
15443;SDS011;7822;48.146;11.576;2023-03-26T12:14:01;2.43;;;1.03;;
15443;SDS011;7822;48.146;11.576;2023-03-26T12:16:31;4.70;;;1.20;;
15443;SDS011;7822;48.146;11.576;2023-03-26T12:19:00;2.93;;;0.90;;
15443;SDS011;7822;48.146;11.576;2023-03-26T12:21:42;1.60;;;0.90;;
15443;SDS011;7822;48.146;11.576;2023-03-26T12:24:23;1.30;;;0.80;;
15443;SDS011;7822;48.146;11.576;2023-03-26T12:26:57;1.47;;;1.03;;
15443;SDS011;7822;48.146;11.576;2023-03-26T12:29:28;2.53;;;1.20;;
15443;SDS011;7822;48.146;11.576;2023-03-26T12:32:03;2.00;;;1.10;;
15443;SDS011;7822;48.146;11.576;2023-03-26T12:34:34;3.83;;;1.40;;
15443;SDS011;7822;48.146;11.576;2023-03-26T12:37:05;2.73;;;1.10;;
15443;SDS011;7822;48.146;11.576;2023-03-26T12:39:36;2.67;;;1.17;;
15443;SDS011;7822;48.146;11.576;2023-03-26T12:42:26;6.20;;;1.07;;
15443;SDS011;7822;48.146;11.576;2023-03-26T12:45:15;5.00;;;1.33;;
15443;SDS011;7822;48.146;11.576;2023-03-26T12:47:47;2.43;;;1.00;;
15443;SDS011;7822;48.146;11.576;2023-03-26T12:50:33;2.97;;;1.30;;
15443;SDS011;7822;48.146;11.576;2023-03-26T12:53:28;2.20;;;1.10;;
15443;SDS011;7822;48.146;11.576;2023-03-26T12:56:07;2.57;;;1.13;;
15443;SDS011;7822;48.146;11.576;2023-03-26T12:58:46;2.83;;;1.20;;
15443;SDS011;7822;48.146;11.576;2023-03-26T13:01:27;2.83;;;1.20;;
15443;SDS011;7822;48.146;11.576;2023-03-26T13:04:11;2.30;;;1.23;;
15443;SDS011;7822;48.146;11.576;2023-03-26T13:06:55;3.87;;;1.23;;
15443;SDS011;7822;48.146;11.576;2023-03-26T13:09:32;3.53;;;1.10;;
15443;SDS011;7822;48.146;11.576;2023-03-26T13:12:20;1.10;;;0.90;;
15443;SDS011;7822;48.146;11.576;2023-03-26T13:15:11;1.70;;;1.03;;
15443;SDS011;7822;48.146;11.576;2023-03-26T13:17:49;2.37;;;1.50;;
15443;SDS011;7822;48.146;11.576;2023-03-26T13:20:30;2.40;;;1.00;;
15443;SDS011;7822;48.146;11.576;2023-03-26T13:23:09;1.97;;;1.00;;
15443;SDS011;7822;48.146;11.576;2023-03-26T13:25:53;1.83;;;1.00;;
15443;SDS011;7822;48.146;11.576;2023-03-26T13:28:28;2.50;;;1.10;;
15443;SDS011;7822;48.146;11.576;2023-03-26T13:31:08;3.53;;;1.17;;
15443;SDS011;7822;48.146;11.576;2023-03-26T13:33:44;2.00;;;0.97;;
15443;SDS011;7822;48.146;11.576;2023-03-26T13:36:21;3.07;;;1.10;;
15443;SDS011;7822;48.146;11.576;2023-03-26T13:39:07;1.60;;;0.97;;
15443;SDS011;7822;48.146;11.576;2023-03-26T13:41:50;3.23;;;1.43;;
15443;SDS011;7822;48.146;11.576;2023-03-26T13:44:31;2.70;;;1.03;;
15443;SDS011;7822;48.146;11.576;2023-03-26T13:47:08;2.57;;;1.00;;
15443;SDS011;7822;48.146;11.576;2023-03-26T13:49:42;1.67;;;1.00;;
15443;SDS011;7822;48.146;11.576;2023-03-26T13:52:16;1.53;;;1.00;;
15443;SDS011;7822;48.146;11.576;2023-03-26T13:54:47;1.23;;;1.07;;
15443;SDS011;7822;48.146;11.576;2023-03-26T13:57:19;2.23;;;1.20;;
15443;SDS011;7822;48.146;11.576;2023-03-26T13:59:51;2.50;;;1.20;;
15443;SDS011;7822;48.146;11.576;2023-03-26T14:02:23;1.13;;;0.90;;
15443;SDS011;7822;48.146;11.576;2023-03-26T14:04:58;1.33;;;0.90;;
15443;SDS011;7822;48.146;11.576;2023-03-26T14:07:31;2.57;;;1.07;;
15443;SDS011;7822;48.146;11.576;2023-03-26T14:10:07;3.07;;;0.97;;
15443;SDS011;7822;48.146;11.576;2023-03-26T14:12:42;2.87;;;1.30;;
15443;SDS011;7822;48.146;11.576;2023-03-26T14:15:16;2.13;;;1.07;;
15443;SDS011;7822;48.146;11.576;2023-03-26T14:17:49;2.70;;;1.10;;
15443;SDS011;7822;48.146;11.576;2023-03-26T14:26:35;0.93;;;0.83;;
15443;SDS011;7822;48.146;11.576;2023-03-26T14:29:20;2.60;;;0.80;;
15443;SDS011;7822;48.146;11.576;2023-03-26T14:32:31;2.37;;;1.10;;
15443;SDS011;7822;48.146;11.576;2023-03-26T14:35:15;2.07;;;1.17;;
15443;SDS011;7822;48.146;11.576;2023-03-26T14:37:55;1.30;;;1.10;;
15443;SDS011;7822;48.146;11.576;2023-03-26T14:40:47;1.43;;;1.00;;
15443;SDS011;7822;48.146;11.576;2023-03-26T14:46:35;1.13;;;1.03;;
15443;SDS011;7822;48.146;11.576;2023-03-26T14:49:24;1.27;;;0.90;;
15443;SDS011;7822;48.146;11.576;2023-03-26T14:52:04;2.97;;;1.20;;
15443;SDS011;7822;48.146;11.576;2023-03-26T14:54:39;1.97;;;1.10;;
15443;SDS011;7822;48.146;11.576;2023-03-26T14:57:17;2.50;;;1.10;;
15443;SDS011;7822;48.146;11.576;2023-03-26T15:03:17;1.20;;;0.93;;
15443;SDS011;7822;48.146;11.576;2023-03-26T15:06:23;1.00;;;0.80;;
15443;SDS011;7822;48.146;11.576;2023-03-26T15:12:23;1.47;;;1.00;;
15443;SDS011;7822;48.146;11.576;2023-03-26T15:15:14;1.30;;;1.13;;
15443;SDS011;7822;48.146;11.576;2023-03-26T15:18:18;1.87;;;0.80;;
15443;SDS011;7822;48.146;11.576;2023-03-26T15:21:18;1.47;;;0.93;;
15443;SDS011;7822;48.146;11.576;2023-03-26T15:30:21;1.63;;;1.43;;
15443;SDS011;7822;48.146;11.576;2023-03-26T15:33:06;1.13;;;1.03;;
15443;SDS011;7822;48.146;11.576;2023-03-26T15:35:59;1.63;;;0.90;;
15443;SDS011;7822;48.146;11.576;2023-03-26T15:42:00;0.77;;;0.70;;
15443;SDS011;7822;48.146;11.576;2023-03-26T15:44:43;1.67;;;1.00;;
15443;SDS011;7822;48.146;11.576;2023-03-26T15:50:33;1.23;;;0.80;;
15443;SDS011;7822;48.146;11.576;2023-03-26T15:53:12;1.07;;;0.97;;
15443;SDS011;7822;48.146;11.576;2023-03-26T15:55:54;1.13;;;0.97;;
15443;SDS011;7822;48.146;11.576;2023-03-26T15:58:29;1.57;;;1.03;;
15443;SDS011;7822;48.146;11.576;2023-03-26T16:01:06;1.17;;;0.80;;
15443;SDS011;7822;48.146;11.576;2023-03-26T16:03:46;1.27;;;1.00;;
15443;SDS011;7822;48.146;11.576;2023-03-26T16:06:31;1.10;;;1.00;;
15443;SDS011;7822;48.146;11.576;2023-03-26T16:09:13;1.20;;;1.07;;
15443;SDS011;7822;48.146;11.576;2023-03-26T16:11:52;0.83;;;0.83;;
15443;SDS011;7822;48.146;11.576;2023-03-26T16:14:22;1.00;;;0.90;;
15443;SDS011;7822;48.146;11.576;2023-03-26T16:17:04;1.57;;;0.90;;
15443;SDS011;7822;48.146;11.576;2023-03-26T16:19:48;1.30;;;0.80;;
15443;SDS011;7822;48.146;11.576;2023-03-26T16:22:40;1.83;;;1.00;;